sensor_id;sensor_type;location;lat;lon;timestamp;pressure;altitude;pressure_sealevel;temperature;humidity
56689;BME280;42565;53.342;-1.534;2022-10-04T00:01:04;99134.36;;;14.68;71.84
56689;BME280;42565;53.342;-1.534;2022-10-04T00:03:39;99130.11;;;14.96;69.44
56689;BME280;42565;53.342;-1.534;2022-10-04T00:06:13;99122.92;;;14.46;70.47
56689;BME280;42565;53.342;-1.534;2022-10-04T00:08:45;99120.42;;;14.88;69.27
56689;BME280;42565;53.342;-1.534;2022-10-04T00:11:21;99112.90;;;14.37;71.74
56689;BME280;42565;53.342;-1.534;2022-10-04T00:13:51;99106.73;;;14.11;73.39
56689;BME280;42565;53.342;-1.534;2022-10-04T00:16:24;99105.88;;;13.45;77.13
56689;BME280;42565;53.342;-1.534;2022-10-04T00:19:02;99096.19;;;13.50;76.53
56689;BME280;42565;53.342;-1.534;2022-10-04T00:23:26;99105.69;;;13.35;77.02
56689;BME280;42565;53.342;-1.534;2022-10-04T00:25:54;99108.41;;;14.13;74.10
56689;BME280;42565;53.342;-1.534;2022-10-04T00:28:41;99109.56;;;14.27;73.50
56689;BME280;42565;53.342;-1.534;2022-10-04T00:31:13;99117.10;;;13.80;75.89
56689;BME280;42565;53.342;-1.534;2022-10-04T00:33:42;99107.23;;;13.02;79.86
56689;BME280;42565;53.342;-1.534;2022-10-04T00:37:16;99105.69;;;13.11;79.88
56689;BME280;42565;53.342;-1.534;2022-10-04T00:39:45;99092.94;;;12.62;82.39
56689;BME280;42565;53.342;-1.534;2022-10-04T00:42:29;99088.89;;;12.81;81.60
56689;BME280;42565;53.342;-1.534;2022-10-04T00:45:01;99087.11;;;12.56;82.85
56689;BME280;42565;53.342;-1.534;2022-10-04T00:47:32;99081.45;;;12.54;83.87
56689;BME280;42565;53.342;-1.534;2022-10-04T00:50:07;99081.71;;;12.96;83.24
56689;BME280;42565;53.342;-1.534;2022-10-04T00:52:41;99072.01;;;13.08;81.89
56689;BME280;42565;53.342;-1.534;2022-10-04T00:55:23;99078.72;;;12.13;85.92
56689;BME280;42565;53.342;-1.534;2022-10-04T00:57:55;99071.64;;;12.30;86.19
56689;BME280;42565;53.342;-1.534;2022-10-04T01:00:25;99071.44;;;12.98;83.64
56689;BME280;42565;53.342;-1.534;2022-10-04T01:02:57;99067.73;;;12.72;86.33
56689;BME280;42565;53.342;-1.534;2022-10-04T01:05:30;99066.95;;;12.10;88.98
56689;BME280;42565;53.342;-1.534;2022-10-04T01:08:05;99066.54;;;13.09;85.16
56689;BME280;42565;53.342;-1.534;2022-10-04T01:10:39;99071.93;;;12.84;85.27
56689;BME280;42565;53.342;-1.534;2022-10-04T01:13:12;99060.89;;;12.62;85.75
56689;BME280;42565;53.342;-1.534;2022-10-04T01:15:43;99054.29;;;13.15;84.84
56689;BME280;42565;53.342;-1.534;2022-10-04T01:18:26;99046.76;;;13.25;82.88
56689;BME280;42565;53.342;-1.534;2022-10-04T01:21:03;99038.62;;;13.13;85.67
56689;BME280;42565;53.342;-1.534;2022-10-04T01:23:33;99031.96;;;12.44;88.60
56689;BME280;42565;53.342;-1.534;2022-10-04T01:26:03;99019.57;;;12.97;87.21
56689;BME280;42565;53.342;-1.534;2022-10-04T01:28:31;99014.42;;;12.47;88.94
56689;BME280;42565;53.342;-1.534;2022-10-04T01:30:58;99002.76;;;13.19;85.04
56689;BME280;42565;53.342;-1.534;2022-10-04T01:33:25;98998.39;;;13.70;84.70
56689;BME280;42565;53.342;-1.534;2022-10-04T01:35:53;98997.06;;;13.59;84.30
56689;BME280;42565;53.342;-1.534;2022-10-04T01:38:20;98983.97;;;13.54;85.06
56689;BME280;42565;53.342;-1.534;2022-10-04T01:40:52;98977.46;;;13.09;86.48
56689;BME280;42565;53.342;-1.534;2022-10-04T01:43:25;98970.15;;;13.30;86.05
56689;BME280;42565;53.342;-1.534;2022-10-04T01:45:59;98965.32;;;13.43;85.40
56689;BME280;42565;53.342;-1.534;2022-10-04T01:48:31;98964.16;;;13.62;81.80
56689;BME280;42565;53.342;-1.534;2022-10-04T01:51:03;98962.03;;;13.59;84.39
56689;BME280;42565;53.342;-1.534;2022-10-04T01:53:39;98954.93;;;13.97;81.90
56689;BME280;42565;53.342;-1.534;2022-10-04T01:56:09;98951.11;;;14.18;81.04
56689;BME280;42565;53.342;-1.534;2022-10-04T01:58:41;98945.97;;;13.96;82.49
56689;BME280;42565;53.342;-1.534;2022-10-04T02:01:14;98951.50;;;13.48;84.91
56689;BME280;42565;53.342;-1.534;2022-10-04T02:03:47;98951.53;;;13.58;83.11
56689;BME280;42565;53.342;-1.534;2022-10-04T02:06:19;98950.04;;;13.38;84.38
56689;BME280;42565;53.342;-1.534;2022-10-04T02:08:49;98948.26;;;13.37;85.64
56689;BME280;42565;53.342;-1.534;2022-10-04T02:11:19;98940.08;;;13.26;86.33
56689;BME280;42565;53.342;-1.534;2022-10-04T02:13:49;98929.90;;;13.04;86.46
56689;BME280;42565;53.342;-1.534;2022-10-04T02:16:17;98926.75;;;13.19;87.44
56689;BME280;42565;53.342;-1.534;2022-10-04T02:18:48;98930.03;;;13.63;85.54
56689;BME280;42565;53.342;-1.534;2022-10-04T02:21:18;98931.50;;;13.47;86.23
56689;BME280;42565;53.342;-1.534;2022-10-04T02:23:46;98916.95;;;13.15;87.19
56689;BME280;42565;53.342;-1.534;2022-10-04T02:26:14;98910.49;;;12.76;89.92
56689;BME280;42565;53.342;-1.534;2022-10-04T02:28:42;98908.35;;;12.62;90.14
56689;BME280;42565;53.342;-1.534;2022-10-04T02:31:10;98901.29;;;11.77;93.55
56689;BME280;42565;53.342;-1.534;2022-10-04T02:33:39;98890.27;;;12.45;92.80
56689;BME280;42565;53.342;-1.534;2022-10-04T02:36:08;98881.09;;;12.20;91.73
56689;BME280;42565;53.342;-1.534;2022-10-04T02:38:38;98874.97;;;12.50;92.87
56689;BME280;42565;53.342;-1.534;2022-10-04T02:41:11;98878.79;;;12.04;93.33
56689;BME280;42565;53.342;-1.534;2022-10-04T02:43:46;98869.40;;;12.27;92.53
56689;BME280;42565;53.342;-1.534;2022-10-04T02:46:22;98867.09;;;12.46;93.23
56689;BME280;42565;53.342;-1.534;2022-10-04T02:48:52;98867.56;;;12.66;95.30
56689;BME280;42565;53.342;-1.534;2022-10-04T02:51:24;98866.27;;;12.49;94.71
56689;BME280;42565;53.342;-1.534;2022-10-04T02:54:01;98859.21;;;11.90;96.95
56689;BME280;42565;53.342;-1.534;2022-10-04T02:56:29;98851.95;;;11.57;99.84
56689;BME280;42565;53.342;-1.534;2022-10-04T02:59:00;98850.99;;;11.71;98.74
56689;BME280;42565;53.342;-1.534;2022-10-04T03:01:39;98867.29;;;12.04;97.31
56689;BME280;42565;53.342;-1.534;2022-10-04T03:04:10;98847.92;;;11.78;96.60
56689;BME280;42565;53.342;-1.534;2022-10-04T03:06:38;98850.83;;;12.24;97.27
56689;BME280;42565;53.342;-1.534;2022-10-04T03:09:06;98839.39;;;11.92;96.00
56689;BME280;42565;53.342;-1.534;2022-10-04T03:11:35;98840.64;;;12.21;96.37
56689;BME280;42565;53.342;-1.534;2022-10-04T03:14:07;98841.58;;;12.15;96.39
56689;BME280;42565;53.342;-1.534;2022-10-04T03:16:37;98842.04;;;12.29;96.10
56689;BME280;42565;53.342;-1.534;2022-10-04T03:19:06;98840.46;;;12.10;95.84
56689;BME280;42565;53.342;-1.534;2022-10-04T03:21:36;98833.71;;;12.29;95.62
56689;BME280;42565;53.342;-1.534;2022-10-04T03:24:05;98839.43;;;12.19;95.23
56689;BME280;42565;53.342;-1.534;2022-10-04T03:26:37;98844.64;;;12.45;95.18
56689;BME280;42565;53.342;-1.534;2022-10-04T03:29:06;98845.67;;;12.67;93.12
56689;BME280;42565;53.342;-1.534;2022-10-04T03:31:35;98846.85;;;12.29;95.31
56689;BME280;42565;53.342;-1.534;2022-10-04T03:34:04;98836.68;;;12.38;94.00
56689;BME280;42565;53.342;-1.534;2022-10-04T03:36:33;98844.34;;;12.49;92.63
56689;BME280;42565;53.342;-1.534;2022-10-04T03:39:08;98837.28;;;12.83;91.24
56689;BME280;42565;53.342;-1.534;2022-10-04T03:41:37;98833.72;;;12.60;91.29
56689;BME280;42565;53.342;-1.534;2022-10-04T03:44:07;98825.44;;;12.77;90.66
56689;BME280;42565;53.342;-1.534;2022-10-04T03:46:40;98825.79;;;12.37;93.52
56689;BME280;42565;53.342;-1.534;2022-10-04T03:49:10;98815.65;;;11.77;95.73
56689;BME280;42565;53.342;-1.534;2022-10-04T03:51:43;98825.87;;;12.24;94.10
56689;BME280;42565;53.342;-1.534;2022-10-04T03:54:15;98823.74;;;11.81;94.87
56689;BME280;42565;53.342;-1.534;2022-10-04T03:56:44;98827.45;;;12.89;92.04
56689;BME280;42565;53.342;-1.534;2022-10-04T03:59:14;98818.15;;;12.80;90.08
56689;BME280;42565;53.342;-1.534;2022-10-04T04:01:45;98809.46;;;13.20;88.43
56689;BME280;42565;53.342;-1.534;2022-10-04T04:04:19;98806.36;;;13.25;88.23
56689;BME280;42565;53.342;-1.534;2022-10-04T04:06:52;98805.34;;;13.01;89.11
56689;BME280;42565;53.342;-1.534;2022-10-04T04:09:34;98816.66;;;13.50;87.41
56689;BME280;42565;53.342;-1.534;2022-10-04T04:12:08;98807.47;;;13.21;87.49
56689;BME280;42565;53.342;-1.534;2022-10-04T04:14:36;98805.54;;;13.35;87.31
56689;BME280;42565;53.342;-1.534;2022-10-04T04:17:39;98795.36;;;12.86;88.00
56689;BME280;42565;53.342;-1.534;2022-10-04T04:20:23;98805.00;;;13.00;88.73
56689;BME280;42565;53.342;-1.534;2022-10-04T04:22:58;98811.35;;;12.96;88.44
56689;BME280;42565;53.342;-1.534;2022-10-04T04:25:28;98804.79;;;13.62;87.05
56689;BME280;42565;53.342;-1.534;2022-10-04T04:28:03;98808.57;;;13.72;83.98
56689;BME280;42565;53.342;-1.534;2022-10-04T04:30:33;98800.44;;;13.70;86.04
56689;BME280;42565;53.342;-1.534;2022-10-04T04:33:20;98785.06;;;12.83;88.50
56689;BME280;42565;53.342;-1.534;2022-10-04T04:35:53;98777.32;;;13.21;87.54
56689;BME280;42565;53.342;-1.534;2022-10-04T04:38:23;98783.89;;;12.68;89.40
56689;BME280;42565;53.342;-1.534;2022-10-04T04:40:51;98779.45;;;12.84;89.19
56689;BME280;42565;53.342;-1.534;2022-10-04T04:43:19;98776.05;;;12.52;92.01
56689;BME280;42565;53.342;-1.534;2022-10-04T04:45:47;98774.43;;;13.30;88.99
56689;BME280;42565;53.342;-1.534;2022-10-04T04:48:16;98778.12;;;12.65;90.52
56689;BME280;42565;53.342;-1.534;2022-10-04T04:50:50;98772.54;;;12.53;92.40
56689;BME280;42565;53.342;-1.534;2022-10-04T04:53:22;98771.10;;;12.48;90.14
56689;BME280;42565;53.342;-1.534;2022-10-04T04:55:53;98776.54;;;12.82;89.57
56689;BME280;42565;53.342;-1.534;2022-10-04T04:58:24;98759.45;;;12.58;89.61
56689;BME280;42565;53.342;-1.534;2022-10-04T05:00:56;98753.65;;;12.59;90.32
56689;BME280;42565;53.342;-1.534;2022-10-04T05:03:24;98762.26;;;12.12;92.15
56689;BME280;42565;53.342;-1.534;2022-10-04T05:05:52;98759.74;;;12.77;91.61
56689;BME280;42565;53.342;-1.534;2022-10-04T05:08:21;98753.41;;;12.19;92.27
56689;BME280;42565;53.342;-1.534;2022-10-04T05:10:53;98754.81;;;12.37;93.40
56689;BME280;42565;53.342;-1.534;2022-10-04T05:13:31;98753.97;;;12.12;92.57
56689;BME280;42565;53.342;-1.534;2022-10-04T05:16:00;98751.32;;;12.39;93.43
56689;BME280;42565;53.342;-1.534;2022-10-04T05:18:29;98748.80;;;11.84;93.69
56689;BME280;42565;53.342;-1.534;2022-10-04T05:21:03;98747.22;;;12.06;95.25
56689;BME280;42565;53.342;-1.534;2022-10-04T05:23:32;98752.15;;;12.02;95.02
56689;BME280;42565;53.342;-1.534;2022-10-04T05:26:00;98754.48;;;12.61;92.80
56689;BME280;42565;53.342;-1.534;2022-10-04T05:28:27;98759.10;;;12.03;94.75
56689;BME280;42565;53.342;-1.534;2022-10-04T05:31:08;98757.68;;;12.84;91.92
56689;BME280;42565;53.342;-1.534;2022-10-04T05:33:45;98747.66;;;13.15;90.41
56689;BME280;42565;53.342;-1.534;2022-10-04T05:36:31;98750.34;;;12.00;92.42
56689;BME280;42565;53.342;-1.534;2022-10-04T05:39:07;98749.54;;;12.31;92.07
56689;BME280;42565;53.342;-1.534;2022-10-04T05:41:41;98746.97;;;12.33;93.05
56689;BME280;42565;53.342;-1.534;2022-10-04T05:44:19;98746.66;;;11.76;92.66
56689;BME280;42565;53.342;-1.534;2022-10-04T05:46:49;98734.79;;;12.42;93.12
56689;BME280;42565;53.342;-1.534;2022-10-04T05:49:18;98728.19;;;12.18;93.61
56689;BME280;42565;53.342;-1.534;2022-10-04T05:51:48;98726.20;;;12.38;91.93
56689;BME280;42565;53.342;-1.534;2022-10-04T05:54:20;98723.87;;;12.35;91.23
56689;BME280;42565;53.342;-1.534;2022-10-04T05:57:14;98727.71;;;12.20;92.99
56689;BME280;42565;53.342;-1.534;2022-10-04T05:59:57;98721.86;;;12.68;91.95
56689;BME280;42565;53.342;-1.534;2022-10-04T06:02:38;98717.05;;;12.70;91.29
56689;BME280;42565;53.342;-1.534;2022-10-04T06:05:12;98717.19;;;12.03;90.11
56689;BME280;42565;53.342;-1.534;2022-10-04T06:07:44;98714.55;;;12.64;89.28
56689;BME280;42565;53.342;-1.534;2022-10-04T06:10:29;98706.19;;;13.38;86.91
56689;BME280;42565;53.342;-1.534;2022-10-04T06:13:06;98702.71;;;12.74;90.77
56689;BME280;42565;53.342;-1.534;2022-10-04T06:15:49;98705.65;;;12.72;90.66
56689;BME280;42565;53.342;-1.534;2022-10-04T06:18:29;98694.92;;;12.73;89.43
56689;BME280;42565;53.342;-1.534;2022-10-04T06:21:18;98696.93;;;12.51;89.73
56689;BME280;42565;53.342;-1.534;2022-10-04T06:23:51;98697.67;;;12.50;89.71
56689;BME280;42565;53.342;-1.534;2022-10-04T06:26:21;98681.33;;;12.88;88.51
56689;BME280;42565;53.342;-1.534;2022-10-04T06:28:52;98683.60;;;12.53;91.57
56689;BME280;42565;53.342;-1.534;2022-10-04T06:31:53;98672.82;;;12.78;90.82
56689;BME280;42565;53.342;-1.534;2022-10-04T06:35:43;98671.14;;;12.80;88.67
56689;BME280;42565;53.342;-1.534;2022-10-04T06:38:25;98677.98;;;12.94;88.59
56689;BME280;42565;53.342;-1.534;2022-10-04T06:41:06;98688.97;;;13.14;87.39
56689;BME280;42565;53.342;-1.534;2022-10-04T06:43:53;98679.74;;;13.42;86.68
56689;BME280;42565;53.342;-1.534;2022-10-04T06:46:26;98680.65;;;12.87;88.52
56689;BME280;42565;53.342;-1.534;2022-10-04T06:49:40;98667.75;;;13.50;86.43
56689;BME280;42565;53.342;-1.534;2022-10-04T06:52:25;98665.74;;;12.59;90.13
56689;BME280;42565;53.342;-1.534;2022-10-04T06:55:13;98655.78;;;12.74;89.26
56689;BME280;42565;53.342;-1.534;2022-10-04T06:57:57;98652.38;;;12.56;90.12
56689;BME280;42565;53.342;-1.534;2022-10-04T07:00:34;98645.98;;;12.49;90.38
56689;BME280;42565;53.342;-1.534;2022-10-04T07:03:11;98644.26;;;13.06;88.68
56689;BME280;42565;53.342;-1.534;2022-10-04T07:05:44;98650.96;;;13.92;85.74
56689;BME280;42565;53.342;-1.534;2022-10-04T07:08:17;98655.18;;;12.63;90.21
56689;BME280;42565;53.342;-1.534;2022-10-04T07:10:50;98648.58;;;12.40;94.11
56689;BME280;42565;53.342;-1.534;2022-10-04T07:13:30;98655.79;;;12.70;93.12
56689;BME280;42565;53.342;-1.534;2022-10-04T07:16:04;98647.35;;;12.05;94.32
56689;BME280;42565;53.342;-1.534;2022-10-04T07:18:38;98644.05;;;12.69;91.64
56689;BME280;42565;53.342;-1.534;2022-10-04T07:21:11;98637.25;;;12.36;91.86
56689;BME280;42565;53.342;-1.534;2022-10-04T07:23:47;98619.08;;;12.64;92.07
56689;BME280;42565;53.342;-1.534;2022-10-04T07:26:22;98616.00;;;12.14;95.08
56689;BME280;42565;53.342;-1.534;2022-10-04T07:28:54;98612.78;;;12.52;94.07
56689;BME280;42565;53.342;-1.534;2022-10-04T07:31:26;98616.55;;;12.45;94.37
56689;BME280;42565;53.342;-1.534;2022-10-04T07:33:56;98609.35;;;12.37;94.59
56689;BME280;42565;53.342;-1.534;2022-10-04T07:36:28;98614.03;;;12.72;93.08
56689;BME280;42565;53.342;-1.534;2022-10-04T07:38:59;98607.97;;;12.84;91.04
56689;BME280;42565;53.342;-1.534;2022-10-04T07:41:33;98617.12;;;12.04;93.95
56689;BME280;42565;53.342;-1.534;2022-10-04T07:44:05;98604.90;;;12.30;93.07
56689;BME280;42565;53.342;-1.534;2022-10-04T07:46:47;98603.85;;;12.73;92.43
56689;BME280;42565;53.342;-1.534;2022-10-04T07:49:17;98592.60;;;12.67;91.70
56689;BME280;42565;53.342;-1.534;2022-10-04T07:51:59;98589.34;;;12.57;91.85
56689;BME280;42565;53.342;-1.534;2022-10-04T07:54:36;98594.99;;;13.29;89.72
56689;BME280;42565;53.342;-1.534;2022-10-04T07:57:13;98596.32;;;12.88;90.64
56689;BME280;42565;53.342;-1.534;2022-10-04T07:59:48;98604.39;;;13.48;88.45
56689;BME280;42565;53.342;-1.534;2022-10-04T08:02:28;98596.39;;;12.91;90.32
56689;BME280;42565;53.342;-1.534;2022-10-04T08:05:06;98594.66;;;13.99;87.03
56689;BME280;42565;53.342;-1.534;2022-10-04T08:07:48;98606.76;;;14.14;84.91
56689;BME280;42565;53.342;-1.534;2022-10-04T08:10:27;98607.16;;;14.20;84.50
56689;BME280;42565;53.342;-1.534;2022-10-04T08:13:04;98605.67;;;13.73;86.22
56689;BME280;42565;53.342;-1.534;2022-10-04T08:15:36;98604.05;;;14.35;83.12
56689;BME280;42565;53.342;-1.534;2022-10-04T08:18:10;98588.33;;;14.26;83.45
56689;BME280;42565;53.342;-1.534;2022-10-04T08:20:48;98589.67;;;14.50;81.95
56689;BME280;42565;53.342;-1.534;2022-10-04T08:23:29;98584.94;;;14.60;81.45
56689;BME280;42565;53.342;-1.534;2022-10-04T08:26:10;98586.11;;;13.91;84.44
56689;BME280;42565;53.342;-1.534;2022-10-04T08:28:48;98572.87;;;14.21;84.12
56689;BME280;42565;53.342;-1.534;2022-10-04T08:31:26;98560.60;;;14.50;82.72
56689;BME280;42565;53.342;-1.534;2022-10-04T08:34:10;98563.71;;;14.19;83.15
56689;BME280;42565;53.342;-1.534;2022-10-04T08:36:54;98562.79;;;14.27;82.62
56689;BME280;42565;53.342;-1.534;2022-10-04T08:39:36;98546.78;;;14.41;83.04
56689;BME280;42565;53.342;-1.534;2022-10-04T08:42:25;98552.10;;;14.41;82.92
56689;BME280;42565;53.342;-1.534;2022-10-04T08:45:14;98545.48;;;14.81;81.63
56689;BME280;42565;53.342;-1.534;2022-10-04T08:50:28;98527.71;;;14.74;83.11
56689;BME280;42565;53.342;-1.534;2022-10-04T08:55:39;98532.49;;;15.19;80.25
56689;BME280;42565;53.342;-1.534;2022-10-04T08:58:15;98518.52;;;14.46;80.88
56689;BME280;42565;53.342;-1.534;2022-10-04T09:00:58;98535.16;;;14.39;82.56
56689;BME280;42565;53.342;-1.534;2022-10-04T09:03:47;98529.27;;;14.99;80.36
56689;BME280;42565;53.342;-1.534;2022-10-04T09:06:33;98526.10;;;14.85;80.60
56689;BME280;42565;53.342;-1.534;2022-10-04T09:09:52;98521.65;;;14.55;81.27
56689;BME280;42565;53.342;-1.534;2022-10-04T09:12:40;98545.96;;;14.42;81.25
56689;BME280;42565;53.342;-1.534;2022-10-04T09:15:19;98534.43;;;14.10;82.43
56689;BME280;42565;53.342;-1.534;2022-10-04T09:17:55;98545.01;;;14.09;81.49
56689;BME280;42565;53.342;-1.534;2022-10-04T09:20:40;98562.40;;;14.75;80.76
56689;BME280;42565;53.342;-1.534;2022-10-04T09:23:21;98562.36;;;15.00;79.13
56689;BME280;42565;53.342;-1.534;2022-10-04T09:26:04;98569.44;;;14.94;79.40
56689;BME280;42565;53.342;-1.534;2022-10-04T09:29:06;98577.68;;;14.71;80.44
56689;BME280;42565;53.342;-1.534;2022-10-04T09:31:52;98573.16;;;14.66;80.70
56689;BME280;42565;53.342;-1.534;2022-10-04T09:34:32;98570.16;;;15.00;79.52
56689;BME280;42565;53.342;-1.534;2022-10-04T09:37:20;98581.58;;;14.54;80.28
56689;BME280;42565;53.342;-1.534;2022-10-04T09:42:35;98596.11;;;16.14;75.17
56689;BME280;42565;53.342;-1.534;2022-10-04T09:45:29;98596.87;;;15.49;76.11
56689;BME280;42565;53.342;-1.534;2022-10-04T09:48:22;98584.45;;;15.39;76.13
56689;BME280;42565;53.342;-1.534;2022-10-04T09:51:07;98591.93;;;15.44;76.92
56689;BME280;42565;53.342;-1.534;2022-10-04T09:53:48;98602.37;;;15.34;77.15
56689;BME280;42565;53.342;-1.534;2022-10-04T10:09:40;98574.51;;;16.32;77.08
56689;BME280;42565;53.342;-1.534;2022-10-04T10:12:23;98583.91;;;15.55;75.02
56689;BME280;42565;53.342;-1.534;2022-10-04T10:15:03;98593.84;;;14.75;78.54
56689;BME280;42565;53.342;-1.534;2022-10-04T10:17:39;98614.73;;;15.36;75.76
56689;BME280;42565;53.342;-1.534;2022-10-04T10:20:27;98610.32;;;15.59;75.89
56689;BME280;42565;53.342;-1.534;2022-10-04T10:23:18;98612.88;;;15.47;76.88
56689;BME280;42565;53.342;-1.534;2022-10-04T10:26:01;98608.73;;;15.37;76.93
56689;BME280;42565;53.342;-1.534;2022-10-04T10:28:45;98596.52;;;15.22;79.43
56689;BME280;42565;53.342;-1.534;2022-10-04T10:31:33;98595.68;;;14.92;79.00
56689;BME280;42565;53.342;-1.534;2022-10-04T10:34:19;98595.53;;;14.66;79.88
56689;BME280;42565;53.342;-1.534;2022-10-04T10:37:07;98606.35;;;15.45;77.34
56689;BME280;42565;53.342;-1.534;2022-10-04T10:39:56;98602.13;;;15.91;76.01
56689;BME280;42565;53.342;-1.534;2022-10-04T10:42:50;98600.40;;;16.02;75.39
56689;BME280;42565;53.342;-1.534;2022-10-04T10:45:35;98611.57;;;15.91;75.65
56689;BME280;42565;53.342;-1.534;2022-10-04T10:48:14;98635.23;;;14.94;77.90
56689;BME280;42565;53.342;-1.534;2022-10-04T10:51:01;98620.56;;;14.47;82.07
56689;BME280;42565;53.342;-1.534;2022-10-04T10:54:26;98613.72;;;14.68;81.25
56689;BME280;42565;53.342;-1.534;2022-10-04T10:57:07;98613.55;;;14.11;84.05
56689;BME280;42565;53.342;-1.534;2022-10-04T10:59:59;98603.74;;;14.03;84.59
56689;BME280;42565;53.342;-1.534;2022-10-04T11:02:42;98603.20;;;14.26;84.40
56689;BME280;42565;53.342;-1.534;2022-10-04T11:06:43;98623.04;;;15.29;81.24
56689;BME280;42565;53.342;-1.534;2022-10-04T11:09:27;98615.52;;;15.31;78.95
56689;BME280;42565;53.342;-1.534;2022-10-04T11:12:12;98626.65;;;15.00;79.42
56689;BME280;42565;53.342;-1.534;2022-10-04T11:15:02;98607.65;;;15.07;79.50
56689;BME280;42565;53.342;-1.534;2022-10-04T11:17:45;98613.34;;;14.98;79.29
56689;BME280;42565;53.342;-1.534;2022-10-04T11:20:39;98618.38;;;15.32;78.23
56689;BME280;42565;53.342;-1.534;2022-10-04T11:23:35;98607.79;;;15.15;79.94
56689;BME280;42565;53.342;-1.534;2022-10-04T11:26:36;98606.99;;;15.23;79.48
56689;BME280;42565;53.342;-1.534;2022-10-04T11:29:19;98605.01;;;15.10;79.01
56689;BME280;42565;53.342;-1.534;2022-10-04T11:32:13;98613.43;;;14.82;80.23
56689;BME280;42565;53.342;-1.534;2022-10-04T11:37:02;98601.79;;;15.52;80.64
56689;BME280;42565;53.342;-1.534;2022-10-04T11:39:47;98594.66;;;14.65;80.36
56689;BME280;42565;53.342;-1.534;2022-10-04T11:42:29;98587.76;;;14.62;81.78
56689;BME280;42565;53.342;-1.534;2022-10-04T11:45:19;98591.84;;;15.63;79.26
56689;BME280;42565;53.342;-1.534;2022-10-04T11:48:00;98593.16;;;14.98;80.79
56689;BME280;42565;53.342;-1.534;2022-10-04T11:50:37;98591.37;;;14.56;82.59
56689;BME280;42565;53.342;-1.534;2022-10-04T11:54:34;98601.99;;;14.93;81.96
56689;BME280;42565;53.342;-1.534;2022-10-04T11:57:18;98610.65;;;14.08;81.49
56689;BME280;42565;53.342;-1.534;2022-10-04T11:59:58;98604.55;;;14.79;81.12
56689;BME280;42565;53.342;-1.534;2022-10-04T12:02:50;98599.47;;;14.55;81.44
56689;BME280;42565;53.342;-1.534;2022-10-04T12:05:32;98596.78;;;14.92;80.58
56689;BME280;42565;53.342;-1.534;2022-10-04T12:08:19;98584.22;;;14.54;83.36
56689;BME280;42565;53.342;-1.534;2022-10-04T12:11:12;98571.32;;;14.75;81.79
56689;BME280;42565;53.342;-1.534;2022-10-04T12:13:57;98575.37;;;14.90;81.00
56689;BME280;42565;53.342;-1.534;2022-10-04T12:16:45;98571.81;;;15.20;81.38
56689;BME280;42565;53.342;-1.534;2022-10-04T12:19:31;98572.64;;;14.50;82.92
56689;BME280;42565;53.342;-1.534;2022-10-04T12:22:17;98572.58;;;15.29;80.12
56689;BME280;42565;53.342;-1.534;2022-10-04T12:25:07;98589.59;;;15.50;79.29
56689;BME280;42565;53.342;-1.534;2022-10-04T12:28:00;98595.37;;;15.50;79.89
56689;BME280;42565;53.342;-1.534;2022-10-04T12:30:50;98605.39;;;14.64;82.43
56689;BME280;42565;53.342;-1.534;2022-10-04T12:33:23;98600.71;;;15.69;79.18
56689;BME280;42565;53.342;-1.534;2022-10-04T12:36:02;98604.38;;;15.82;78.24
56689;BME280;42565;53.342;-1.534;2022-10-04T12:38:48;98618.76;;;14.84;81.81
56689;BME280;42565;53.342;-1.534;2022-10-04T12:41:29;98617.03;;;16.28;77.07
56689;BME280;42565;53.342;-1.534;2022-10-04T12:44:11;98608.09;;;16.39;76.08
56689;BME280;42565;53.342;-1.534;2022-10-04T12:46:50;98600.20;;;15.53;79.40
56689;BME280;42565;53.342;-1.534;2022-10-04T12:49:30;98597.87;;;15.82;78.60
56689;BME280;42565;53.342;-1.534;2022-10-04T12:52:10;98598.46;;;16.41;77.20
56689;BME280;42565;53.342;-1.534;2022-10-04T12:54:43;98586.78;;;16.49;76.98
56689;BME280;42565;53.342;-1.534;2022-10-04T12:57:36;98584.31;;;16.26;76.60
56689;BME280;42565;53.342;-1.534;2022-10-04T13:00:17;98589.92;;;16.22;78.17
56689;BME280;42565;53.342;-1.534;2022-10-04T13:02:56;98575.45;;;16.01;79.02
56689;BME280;42565;53.342;-1.534;2022-10-04T13:05:34;98572.86;;;16.12;77.76
56689;BME280;42565;53.342;-1.534;2022-10-04T13:08:13;98581.05;;;16.10;77.52
56689;BME280;42565;53.342;-1.534;2022-10-04T13:10:56;98578.69;;;16.59;74.95
56689;BME280;42565;53.342;-1.534;2022-10-04T13:13:42;98586.08;;;16.18;76.72
56689;BME280;42565;53.342;-1.534;2022-10-04T13:16:16;98588.53;;;16.45;76.56
56689;BME280;42565;53.342;-1.534;2022-10-04T13:18:52;98592.85;;;15.92;78.16
56689;BME280;42565;53.342;-1.534;2022-10-04T13:21:50;98592.22;;;16.15;78.66
56689;BME280;42565;53.342;-1.534;2022-10-04T13:24:28;98592.49;;;15.43;81.85
56689;BME280;42565;53.342;-1.534;2022-10-04T13:27:00;98595.17;;;15.97;80.45
56689;BME280;42565;53.342;-1.534;2022-10-04T13:29:31;98590.64;;;16.18;79.42
56689;BME280;42565;53.342;-1.534;2022-10-04T13:32:05;98589.83;;;16.25;77.59
56689;BME280;42565;53.342;-1.534;2022-10-04T13:34:41;98584.63;;;16.50;78.43
56689;BME280;42565;53.342;-1.534;2022-10-04T13:37:23;98576.46;;;16.22;79.19
56689;BME280;42565;53.342;-1.534;2022-10-04T13:40:22;98583.67;;;16.04;80.96
56689;BME280;42565;53.342;-1.534;2022-10-04T13:43:02;98592.77;;;15.93;83.77
56689;BME280;42565;53.342;-1.534;2022-10-04T13:45:42;98589.64;;;16.04;83.93
56689;BME280;42565;53.342;-1.534;2022-10-04T13:48:27;98578.91;;;16.26;83.91
56689;BME280;42565;53.342;-1.534;2022-10-04T13:51:13;98562.81;;;15.57;87.26
56689;BME280;42565;53.342;-1.534;2022-10-04T13:53:52;98557.56;;;15.54;86.33
56689;BME280;42565;53.342;-1.534;2022-10-04T13:56:47;98555.11;;;15.43;87.63
56689;BME280;42565;53.342;-1.534;2022-10-04T13:59:22;98551.44;;;15.52;87.34
56689;BME280;42565;53.342;-1.534;2022-10-04T14:04:19;98560.87;;;15.08;89.18
56689;BME280;42565;53.342;-1.534;2022-10-04T14:07:10;98569.01;;;15.39;88.04
56689;BME280;42565;53.342;-1.534;2022-10-04T14:09:58;98565.49;;;16.16;86.76
56689;BME280;42565;53.342;-1.534;2022-10-04T14:12:52;98558.26;;;16.25;86.78
56689;BME280;42565;53.342;-1.534;2022-10-04T14:18:33;98563.05;;;16.24;87.44
56689;BME280;42565;53.342;-1.534;2022-10-04T14:21:22;98564.23;;;16.22;85.37